Cam: Der Himmel über Mannheim, aktuelles Bild mit Wetterinformationen (Metar)



Der Himmel über Mannheim
Die WebCam zeigt nach Norden. (Feudenheim 3km, Vogelstang 6km, Frankfurt 70km)

Letzter SYNOP von MA-Vogelstang. Zeitformat[UTC].
Beispiel: 18hr entspricht 19:00 Uhr oder bei Sommerzeit 20 Uhr


Das aktuelle Wetter in Baden Wurttemberg, Neuostheim, Germany:

Baden Wurttemberg, Neuostheim, Germany stehen keine DATEN zur Verfügung.
METAR:

Das aktuelle Wetter in Mannheim, Seckenheim, Germany

0968: Neuester Wetterbericht von 13:25 Uhr. Die Windgeschwindigkeit war 0.5 m/s (1.2 Meilen pro Stunde) und er kam aus Südost (130°). Die Temperatur war 35 °C (95 °F) bei einem Taupunkt von 18 °C (64 °F). Die gefühlte Temperatur lag bei 36 °C (97 °F). Der Luftdruck stand auf 1013 hPa (29.91 inHg). Die relative Luftfeuchtigkeit erreichte 36.7%. Der Himmel war klar.
METAR: 09682 111225Z 13001KT SKC 35/18 Q1013

Mehr zum Thema Metar


Nach oben

HomeHome

Schnellzugriff auf diese Seite mit c.maw24.de oder cam.Mannheim-Wetter.Info


XHTML 1.0 Transitional